sensor_id;sensor_type;location;lat;lon;timestamp;P1;durP1;ratioP1;P2;durP2;ratioP2
37847;SDS011;23688;33.130;-117.188;2023-08-21T00:00:28;0.93;;;0.57;;
37847;SDS011;23688;33.130;-117.188;2023-08-21T00:02:55;1.55;;;0.90;;
37847;SDS011;23688;33.130;-117.188;2023-08-21T00:05:21;2.35;;;1.17;;
37847;SDS011;23688;33.130;-117.188;2023-08-21T00:07:48;0.98;;;0.98;;
37847;SDS011;23688;33.130;-117.188;2023-08-21T00:10:16;0.70;;;0.70;;
37847;SDS011;23688;33.130;-117.188;2023-08-21T00:12:42;1.67;;;1.45;;
37847;SDS011;23688;33.130;-117.188;2023-08-21T00:15:09;2.17;;;1.15;;
37847;SDS011;23688;33.130;-117.188;2023-08-21T00:17:35;1.38;;;1.27;;
37847;SDS011;23688;33.130;-117.188;2023-08-21T00:20:01;5.70;;;1.20;;
37847;SDS011;23688;33.130;-117.188;2023-08-21T00:22:28;1.48;;;1.10;;
37847;SDS011;23688;33.130;-117.188;2023-08-21T00:24:54;1.55;;;1.10;;
37847;SDS011;23688;33.130;-117.188;2023-08-21T00:27:20;1.02;;;0.98;;
37847;SDS011;23688;33.130;-117.188;2023-08-21T00:29:47;2.60;;;0.95;;
37847;SDS011;23688;33.130;-117.188;2023-08-21T00:32:13;1.67;;;1.00;;
37847;SDS011;23688;33.130;-117.188;2023-08-21T00:34:40;2.33;;;1.30;;
37847;SDS011;23688;33.130;-117.188;2023-08-21T00:37:09;2.05;;;0.90;;
37847;SDS011;23688;33.130;-117.188;2023-08-21T00:39:36;1.40;;;0.98;;
37847;SDS011;23688;33.130;-117.188;2023-08-21T00:42:02;2.08;;;1.10;;
37847;SDS011;23688;33.130;-117.188;2023-08-21T00:44:28;1.58;;;1.10;;
37847;SDS011;23688;33.130;-117.188;2023-08-21T00:46:55;1.95;;;1.23;;
37847;SDS011;23688;33.130;-117.188;2023-08-21T00:49:21;2.15;;;1.00;;
37847;SDS011;23688;33.130;-117.188;2023-08-21T00:51:48;1.85;;;0.90;;
37847;SDS011;23688;33.130;-117.188;2023-08-21T00:54:15;1.03;;;0.70;;
37847;SDS011;23688;33.130;-117.188;2023-08-21T00:56:42;4.05;;;1.10;;
37847;SDS011;23688;33.130;-117.188;2023-08-21T00:59:11;3.25;;;0.80;;
37847;SDS011;23688;33.130;-117.188;2023-08-21T01:01:38;0.60;;;0.60;;
37847;SDS011;23688;33.130;-117.188;2023-08-21T01:04:06;2.88;;;0.75;;
37847;SDS011;23688;33.130;-117.188;2023-08-21T01:06:33;0.60;;;0.60;;
37847;SDS011;23688;33.130;-117.188;2023-08-21T01:11:58;2.55;;;1.33;;
37847;SDS011;23688;33.130;-117.188;2023-08-21T01:14:43;2.38;;;1.00;;
37847;SDS011;23688;33.130;-117.188;2023-08-21T01:17:12;1.38;;;0.70;;
37847;SDS011;23688;33.130;-117.188;2023-08-21T01:19:46;3.38;;;1.08;;
37847;SDS011;23688;33.130;-117.188;2023-08-21T01:22:15;3.15;;;0.90;;
37847;SDS011;23688;33.130;-117.188;2023-08-21T01:24:41;3.55;;;0.90;;
37847;SDS011;23688;33.130;-117.188;2023-08-21T01:27:08;1.88;;;0.93;;
37847;SDS011;23688;33.130;-117.188;2023-08-21T01:29:36;0.52;;;0.50;;
37847;SDS011;23688;33.130;-117.188;2023-08-21T01:34:29;1.35;;;0.80;;
37847;SDS011;23688;33.130;-117.188;2023-08-21T01:36:59;2.17;;;0.73;;
37847;SDS011;23688;33.130;-117.188;2023-08-21T01:39:26;1.25;;;0.70;;
37847;SDS011;23688;33.130;-117.188;2023-08-21T01:41:53;2.50;;;0.80;;
37847;SDS011;23688;33.130;-117.188;2023-08-21T01:44:21;1.05;;;0.95;;
37847;SDS011;23688;33.130;-117.188;2023-08-21T01:46:47;1.23;;;0.93;;
37847;SDS011;23688;33.130;-117.188;2023-08-21T01:49:13;1.50;;;1.00;;
37847;SDS011;23688;33.130;-117.188;2023-08-21T01:51:40;1.10;;;0.98;;
37847;SDS011;23688;33.130;-117.188;2023-08-21T01:54:06;1.20;;;0.80;;
37847;SDS011;23688;33.130;-117.188;2023-08-21T01:56:32;1.98;;;0.95;;
37847;SDS011;23688;33.130;-117.188;2023-08-21T01:59:02;1.42;;;1.00;;
37847;SDS011;23688;33.130;-117.188;2023-08-21T02:01:29;1.10;;;0.80;;
37847;SDS011;23688;33.130;-117.188;2023-08-21T02:03:56;2.92;;;1.02;;
37847;SDS011;23688;33.130;-117.188;2023-08-21T02:06:22;2.08;;;1.17;;
37847;SDS011;23688;33.130;-117.188;2023-08-21T02:08:48;3.63;;;1.15;;
37847;SDS011;23688;33.130;-117.188;2023-08-21T02:11:15;1.48;;;0.73;;
37847;SDS011;23688;33.130;-117.188;2023-08-21T02:13:41;1.85;;;0.85;;
37847;SDS011;23688;33.130;-117.188;2023-08-21T02:16:08;2.53;;;0.70;;
37847;SDS011;23688;33.130;-117.188;2023-08-21T02:18:34;2.65;;;0.70;;
37847;SDS011;23688;33.130;-117.188;2023-08-21T02:21:01;0.90;;;0.60;;
37847;SDS011;23688;33.130;-117.188;2023-08-21T02:23:27;1.33;;;0.47;;
37847;SDS011;23688;33.130;-117.188;2023-08-21T02:25:57;2.13;;;0.45;;
37847;SDS011;23688;33.130;-117.188;2023-08-21T02:28:23;2.75;;;1.00;;
37847;SDS011;23688;33.130;-117.188;2023-08-21T02:30:50;1.08;;;0.40;;
37847;SDS011;23688;33.130;-117.188;2023-08-21T02:33:16;1.50;;;0.50;;
37847;SDS011;23688;33.130;-117.188;2023-08-21T02:35:42;0.52;;;0.43;;
37847;SDS011;23688;33.130;-117.188;2023-08-21T02:38:09;1.45;;;0.30;;
37847;SDS011;23688;33.130;-117.188;2023-08-21T02:40:35;1.52;;;0.38;;
37847;SDS011;23688;33.130;-117.188;2023-08-21T02:43:01;1.23;;;0.52;;
37847;SDS011;23688;33.130;-117.188;2023-08-21T02:45:28;1.60;;;0.38;;
37847;SDS011;23688;33.130;-117.188;2023-08-21T02:48:00;2.03;;;0.30;;
37847;SDS011;23688;33.130;-117.188;2023-08-21T02:50:26;0.90;;;0.13;;
37847;SDS011;23688;33.130;-117.188;2023-08-21T02:52:53;2.65;;;0.30;;
37847;SDS011;23688;33.130;-117.188;2023-08-21T02:55:19;8.52;;;0.30;;
37847;SDS011;23688;33.130;-117.188;2023-08-21T02:57:46;0.10;;;0.05;;
37847;SDS011;23688;33.130;-117.188;2023-08-21T03:00:12;3.60;;;0.30;;
37847;SDS011;23688;33.130;-117.188;2023-08-21T03:02:41;0.90;;;0.20;;
37847;SDS011;23688;33.130;-117.188;2023-08-21T03:05:08;1.52;;;0.20;;
37847;SDS011;23688;33.130;-117.188;2023-08-21T03:07:38;1.05;;;0.25;;
37847;SDS011;23688;33.130;-117.188;2023-08-21T03:10:05;1.05;;;0.10;;
37847;SDS011;23688;33.130;-117.188;2023-08-21T03:12:32;0.70;;;0.20;;
37847;SDS011;23688;33.130;-117.188;2023-08-21T03:14:59;0.68;;;0.13;;
37847;SDS011;23688;33.130;-117.188;2023-08-21T03:17:25;1.00;;;0.30;;
37847;SDS011;23688;33.130;-117.188;2023-08-21T03:19:52;0.32;;;0.05;;
37847;SDS011;23688;33.130;-117.188;2023-08-21T03:22:24;4.57;;;0.47;;
37847;SDS011;23688;33.130;-117.188;2023-08-21T03:24:50;2.85;;;0.25;;
37847;SDS011;23688;33.130;-117.188;2023-08-21T03:27:17;1.75;;;0.20;;
37847;SDS011;23688;33.130;-117.188;2023-08-21T03:29:44;0.00;;;0.00;;
37847;SDS011;23688;33.130;-117.188;2023-08-21T03:32:16;0.32;;;0.10;;
37847;SDS011;23688;33.130;-117.188;2023-08-21T03:34:43;0.10;;;0.10;;
37847;SDS011;23688;33.130;-117.188;2023-08-21T03:37:10;0.20;;;0.10;;
37847;SDS011;23688;33.130;-117.188;2023-08-21T03:39:36;0.52;;;0.10;;
37847;SDS011;23688;33.130;-117.188;2023-08-21T03:42:04;0.60;;;0.10;;
37847;SDS011;23688;33.130;-117.188;2023-08-21T03:44:30;0.50;;;0.20;;
37847;SDS011;23688;33.130;-117.188;2023-08-21T03:46:57;0.75;;;0.10;;
37847;SDS011;23688;33.130;-117.188;2023-08-21T03:49:23;0.30;;;0.20;;
37847;SDS011;23688;33.130;-117.188;2023-08-21T03:51:49;0.55;;;0.08;;
37847;SDS011;23688;33.130;-117.188;2023-08-21T03:54:16;0.30;;;0.20;;
37847;SDS011;23688;33.130;-117.188;2023-08-21T03:56:42;0.45;;;0.10;;
37847;SDS011;23688;33.130;-117.188;2023-08-21T03:59:09;0.10;;;0.08;;
37847;SDS011;23688;33.130;-117.188;2023-08-21T04:01:35;0.52;;;0.10;;
37847;SDS011;23688;33.130;-117.188;2023-08-21T04:04:01;1.27;;;0.30;;
37847;SDS011;23688;33.130;-117.188;2023-08-21T04:06:28;1.50;;;0.20;;
37847;SDS011;23688;33.130;-117.188;2023-08-21T04:08:54;0.05;;;0.05;;
37847;SDS011;23688;33.130;-117.188;2023-08-21T04:11:20;1.05;;;0.40;;
37847;SDS011;23688;33.130;-117.188;2023-08-21T04:13:46;1.00;;;0.52;;
37847;SDS011;23688;33.130;-117.188;2023-08-21T04:16:13;1.35;;;0.28;;
37847;SDS011;23688;33.130;-117.188;2023-08-21T04:18:40;0.63;;;0.10;;
37847;SDS011;23688;33.130;-117.188;2023-08-21T04:21:06;0.60;;;0.20;;
37847;SDS011;23688;33.130;-117.188;2023-08-21T04:23:32;0.90;;;0.20;;
37847;SDS011;23688;33.130;-117.188;2023-08-21T04:26:02;1.38;;;0.30;;
37847;SDS011;23688;33.130;-117.188;2023-08-21T04:28:30;1.83;;;0.10;;
37847;SDS011;23688;33.130;-117.188;2023-08-21T04:30:57;0.45;;;0.20;;
37847;SDS011;23688;33.130;-117.188;2023-08-21T04:33:24;0.45;;;0.10;;
37847;SDS011;23688;33.130;-117.188;2023-08-21T04:35:53;1.77;;;0.20;;
37847;SDS011;23688;33.130;-117.188;2023-08-21T04:38:20;0.08;;;0.08;;
37847;SDS011;23688;33.130;-117.188;2023-08-21T04:40:46;0.35;;;0.20;;
37847;SDS011;23688;33.130;-117.188;2023-08-21T04:43:12;0.95;;;0.30;;
37847;SDS011;23688;33.130;-117.188;2023-08-21T04:45:45;0.20;;;0.20;;
37847;SDS011;23688;33.130;-117.188;2023-08-21T04:48:18;1.52;;;0.88;;
37847;SDS011;23688;33.130;-117.188;2023-08-21T04:50:45;1.35;;;1.10;;
37847;SDS011;23688;33.130;-117.188;2023-08-21T04:53:12;5.03;;;1.42;;
37847;SDS011;23688;33.130;-117.188;2023-08-21T04:55:39;4.90;;;2.30;;
37847;SDS011;23688;33.130;-117.188;2023-08-21T04:58:07;4.32;;;2.80;;
37847;SDS011;23688;33.130;-117.188;2023-08-21T05:00:34;8.18;;;5.30;;
37847;SDS011;23688;33.130;-117.188;2023-08-21T05:03:00;11.55;;;5.65;;
37847;SDS011;23688;33.130;-117.188;2023-08-21T05:05:27;11.52;;;5.70;;
37847;SDS011;23688;33.130;-117.188;2023-08-21T05:07:53;12.68;;;6.32;;
37847;SDS011;23688;33.130;-117.188;2023-08-21T05:10:20;12.23;;;6.30;;
37847;SDS011;23688;33.130;-117.188;2023-08-21T05:12:46;20.35;;;7.28;;
37847;SDS011;23688;33.130;-117.188;2023-08-21T05:15:13;18.63;;;8.10;;
37847;SDS011;23688;33.130;-117.188;2023-08-21T05:17:41;22.92;;;9.57;;
37847;SDS011;23688;33.130;-117.188;2023-08-21T05:20:07;26.83;;;10.40;;
37847;SDS011;23688;33.130;-117.188;2023-08-21T05:22:35;37.17;;;11.27;;
37847;SDS011;23688;33.130;-117.188;2023-08-21T05:25:01;26.65;;;11.07;;
37847;SDS011;23688;33.130;-117.188;2023-08-21T05:27:28;28.60;;;11.38;;
37847;SDS011;23688;33.130;-117.188;2023-08-21T05:29:54;38.10;;;11.07;;
37847;SDS011;23688;33.130;-117.188;2023-08-21T05:32:20;23.80;;;10.48;;
37847;SDS011;23688;33.130;-117.188;2023-08-21T05:34:47;28.90;;;10.80;;
37847;SDS011;23688;33.130;-117.188;2023-08-21T05:37:13;31.45;;;10.10;;
37847;SDS011;23688;33.130;-117.188;2023-08-21T05:39:39;33.28;;;10.05;;
37847;SDS011;23688;33.130;-117.188;2023-08-21T05:42:05;30.17;;;10.02;;
37847;SDS011;23688;33.130;-117.188;2023-08-21T05:44:32;26.98;;;9.90;;
37847;SDS011;23688;33.130;-117.188;2023-08-21T05:46:58;35.72;;;9.82;;
37847;SDS011;23688;33.130;-117.188;2023-08-21T05:49:24;20.88;;;10.02;;
37847;SDS011;23688;33.130;-117.188;2023-08-21T05:51:51;25.42;;;9.50;;
37847;SDS011;23688;33.130;-117.188;2023-08-21T05:54:17;23.73;;;10.18;;
37847;SDS011;23688;33.130;-117.188;2023-08-21T05:56:43;30.30;;;9.07;;
37847;SDS011;23688;33.130;-117.188;2023-08-21T05:59:10;33.90;;;9.93;;
37847;SDS011;23688;33.130;-117.188;2023-08-21T06:01:37;28.73;;;9.52;;
37847;SDS011;23688;33.130;-117.188;2023-08-21T06:04:05;27.38;;;8.45;;
37847;SDS011;23688;33.130;-117.188;2023-08-21T06:06:31;24.95;;;8.35;;
37847;SDS011;23688;33.130;-117.188;2023-08-21T06:08:57;26.20;;;8.45;;
37847;SDS011;23688;33.130;-117.188;2023-08-21T06:11:24;32.30;;;7.95;;
37847;SDS011;23688;33.130;-117.188;2023-08-21T06:13:50;26.20;;;7.68;;
37847;SDS011;23688;33.130;-117.188;2023-08-21T06:16:16;29.23;;;8.70;;
37847;SDS011;23688;33.130;-117.188;2023-08-21T06:18:43;27.98;;;8.90;;
37847;SDS011;23688;33.130;-117.188;2023-08-21T06:21:09;29.92;;;7.80;;
37847;SDS011;23688;33.130;-117.188;2023-08-21T06:23:35;26.27;;;7.80;;
37847;SDS011;23688;33.130;-117.188;2023-08-21T06:26:01;18.48;;;7.40;;
37847;SDS011;23688;33.130;-117.188;2023-08-21T06:28:28;21.67;;;7.35;;
37847;SDS011;23688;33.130;-117.188;2023-08-21T06:30:55;21.15;;;7.05;;
37847;SDS011;23688;33.130;-117.188;2023-08-21T06:33:28;37.17;;;9.70;;
37847;SDS011;23688;33.130;-117.188;2023-08-21T06:35:55;20.88;;;7.47;;
37847;SDS011;23688;33.130;-117.188;2023-08-21T06:38:21;26.92;;;7.60;;
37847;SDS011;23688;33.130;-117.188;2023-08-21T06:40:47;26.33;;;7.78;;
37847;SDS011;23688;33.130;-117.188;2023-08-21T06:43:16;25.95;;;7.78;;
37847;SDS011;23688;33.130;-117.188;2023-08-21T06:45:43;19.63;;;7.05;;
37847;SDS011;23688;33.130;-117.188;2023-08-21T06:48:09;28.17;;;7.63;;
37847;SDS011;23688;33.130;-117.188;2023-08-21T06:50:36;23.83;;;7.38;;
37847;SDS011;23688;33.130;-117.188;2023-08-21T06:53:03;23.45;;;7.30;;
37847;SDS011;23688;33.130;-117.188;2023-08-21T06:55:29;33.85;;;7.95;;
37847;SDS011;23688;33.130;-117.188;2023-08-21T06:57:55;24.17;;;7.13;;
37847;SDS011;23688;33.130;-117.188;2023-08-21T07:00:21;21.55;;;7.43;;
37847;SDS011;23688;33.130;-117.188;2023-08-21T07:02:48;18.90;;;7.68;;
37847;SDS011;23688;33.130;-117.188;2023-08-21T07:05:14;21.67;;;7.20;;
37847;SDS011;23688;33.130;-117.188;2023-08-21T07:07:40;17.35;;;7.18;;
37847;SDS011;23688;33.130;-117.188;2023-08-21T07:10:07;26.45;;;7.72;;
37847;SDS011;23688;33.130;-117.188;2023-08-21T07:12:33;34.45;;;7.85;;
37847;SDS011;23688;33.130;-117.188;2023-08-21T07:15:00;33.15;;;7.47;;
37847;SDS011;23688;33.130;-117.188;2023-08-21T07:17:26;20.15;;;7.18;;
37847;SDS011;23688;33.130;-117.188;2023-08-21T07:19:52;26.38;;;8.23;;
37847;SDS011;23688;33.130;-117.188;2023-08-21T07:22:19;27.25;;;7.25;;
37847;SDS011;23688;33.130;-117.188;2023-08-21T07:24:46;26.95;;;8.45;;
37847;SDS011;23688;33.130;-117.188;2023-08-21T07:27:13;17.23;;;6.78;;
37847;SDS011;23688;33.130;-117.188;2023-08-21T07:29:39;30.17;;;7.70;;
37847;SDS011;23688;33.130;-117.188;2023-08-21T07:32:05;16.90;;;6.57;;
37847;SDS011;23688;33.130;-117.188;2023-08-21T07:34:34;21.17;;;6.80;;
37847;SDS011;23688;33.130;-117.188;2023-08-21T07:37:00;20.08;;;6.53;;
37847;SDS011;23688;33.130;-117.188;2023-08-21T07:39:26;24.20;;;7.30;;
37847;SDS011;23688;33.130;-117.188;2023-08-21T07:41:52;24.65;;;7.68;;
37847;SDS011;23688;33.130;-117.188;2023-08-21T07:44:19;22.75;;;7.10;;
37847;SDS011;23688;33.130;-117.188;2023-08-21T07:46:45;20.60;;;7.15;;
37847;SDS011;23688;33.130;-117.188;2023-08-21T07:49:11;19.73;;;6.22;;
37847;SDS011;23688;33.130;-117.188;2023-08-21T07:51:38;22.42;;;6.53;;
37847;SDS011;23688;33.130;-117.188;2023-08-21T07:54:04;20.08;;;7.30;;
37847;SDS011;23688;33.130;-117.188;2023-08-21T07:56:30;26.40;;;7.43;;
37847;SDS011;23688;33.130;-117.188;2023-08-21T07:58:57;29.25;;;6.65;;
37847;SDS011;23688;33.130;-117.188;2023-08-21T08:01:23;21.48;;;6.85;;
37847;SDS011;23688;33.130;-117.188;2023-08-21T08:03:49;29.58;;;7.82;;
37847;SDS011;23688;33.130;-117.188;2023-08-21T08:06:16;22.13;;;6.57;;
37847;SDS011;23688;33.130;-117.188;2023-08-21T08:08:43;25.13;;;6.63;;
37847;SDS011;23688;33.130;-117.188;2023-08-21T08:11:11;16.38;;;6.05;;
37847;SDS011;23688;33.130;-117.188;2023-08-21T08:13:37;32.53;;;7.22;;
37847;SDS011;23688;33.130;-117.188;2023-08-21T08:16:03;19.80;;;7.22;;
37847;SDS011;23688;33.130;-117.188;2023-08-21T08:18:29;22.80;;;6.60;;
37847;SDS011;23688;33.130;-117.188;2023-08-21T08:20:56;17.80;;;5.78;;
37847;SDS011;23688;33.130;-117.188;2023-08-21T08:23:22;19.75;;;6.22;;
37847;SDS011;23688;33.130;-117.188;2023-08-21T08:25:48;22.90;;;6.85;;
37847;SDS011;23688;33.130;-117.188;2023-08-21T08:28:15;26.95;;;6.72;;
37847;SDS011;23688;33.130;-117.188;2023-08-21T08:30:41;30.30;;;6.90;;
37847;SDS011;23688;33.130;-117.188;2023-08-21T08:33:08;21.27;;;7.53;;
37847;SDS011;23688;33.130;-117.188;2023-08-21T08:35:34;24.20;;;7.10;;
37847;SDS011;23688;33.130;-117.188;2023-08-21T08:38:00;20.05;;;6.32;;
37847;SDS011;23688;33.130;-117.188;2023-08-21T08:40:27;23.65;;;7.38;;
37847;SDS011;23688;33.130;-117.188;2023-08-21T08:42:53;28.15;;;7.80;;
37847;SDS011;23688;33.130;-117.188;2023-08-21T08:45:23;25.27;;;7.63;;
37847;SDS011;23688;33.130;-117.188;2023-08-21T08:47:59;16.17;;;6.47;;
37847;SDS011;23688;33.130;-117.188;2023-08-21T08:50:29;24.83;;;7.28;;
37847;SDS011;23688;33.130;-117.188;2023-08-21T08:55:24;18.15;;;6.28;;
37847;SDS011;23688;33.130;-117.188;2023-08-21T08:57:51;27.95;;;7.47;;
37847;SDS011;23688;33.130;-117.188;2023-08-21T09:00:19;18.27;;;6.30;;
37847;SDS011;23688;33.130;-117.188;2023-08-21T09:02:46;20.90;;;7.97;;
37847;SDS011;23688;33.130;-117.188;2023-08-21T09:05:13;16.58;;;5.90;;
37847;SDS011;23688;33.130;-117.188;2023-08-21T09:07:39;21.27;;;5.88;;
37847;SDS011;23688;33.130;-117.188;2023-08-21T09:10:12;23.33;;;6.18;;
37847;SDS011;23688;33.130;-117.188;2023-08-21T09:12:40;19.13;;;6.70;;
37847;SDS011;23688;33.130;-117.188;2023-08-21T09:15:10;21.67;;;6.55;;
37847;SDS011;23688;33.130;-117.188;2023-08-21T09:17:36;13.60;;;5.90;;
37847;SDS011;23688;33.130;-117.188;2023-08-21T09:20:06;18.02;;;6.78;;
37847;SDS011;23688;33.130;-117.188;2023-08-21T09:22:36;18.38;;;6.70;;
37847;SDS011;23688;33.130;-117.188;2023-08-21T09:25:05;19.15;;;5.55;;
37847;SDS011;23688;33.130;-117.188;2023-08-21T09:27:35;20.42;;;6.22;;
37847;SDS011;23688;33.130;-117.188;2023-08-21T09:30:06;21.17;;;6.82;;
37847;SDS011;23688;33.130;-117.188;2023-08-21T09:32:56;19.95;;;5.95;;
37847;SDS011;23688;33.130;-117.188;2023-08-21T09:35:26;19.27;;;5.35;;
37847;SDS011;23688;33.130;-117.188;2023-08-21T09:37:52;22.05;;;6.18;;
37847;SDS011;23688;33.130;-117.188;2023-08-21T09:40:19;29.02;;;6.00;;
37847;SDS011;23688;33.130;-117.188;2023-08-21T09:42:55;22.65;;;7.15;;
37847;SDS011;23688;33.130;-117.188;2023-08-21T09:45:22;24.17;;;5.95;;
37847;SDS011;23688;33.130;-117.188;2023-08-21T09:47:50;25.20;;;6.47;;
37847;SDS011;23688;33.130;-117.188;2023-08-21T09:50:20;21.38;;;5.93;;
37847;SDS011;23688;33.130;-117.188;2023-08-21T09:52:47;14.30;;;5.82;;
37847;SDS011;23688;33.130;-117.188;2023-08-21T09:55:15;23.52;;;6.43;;
37847;SDS011;23688;33.130;-117.188;2023-08-21T09:57:41;21.73;;;6.00;;
37847;SDS011;23688;33.130;-117.188;2023-08-21T10:00:08;21.90;;;6.57;;
37847;SDS011;23688;33.130;-117.188;2023-08-21T10:02:44;22.50;;;6.00;;
37847;SDS011;23688;33.130;-117.188;2023-08-21T10:05:16;17.25;;;6.53;;
37847;SDS011;23688;33.130;-117.188;2023-08-21T10:07:49;30.13;;;7.13;;
37847;SDS011;23688;33.130;-117.188;2023-08-21T10:10:16;20.27;;;5.90;;
37847;SDS011;23688;33.130;-117.188;2023-08-21T10:12:43;14.93;;;6.35;;
37847;SDS011;23688;33.130;-117.188;2023-08-21T10:15:09;15.23;;;6.45;;
37847;SDS011;23688;33.130;-117.188;2023-08-21T10:17:36;23.38;;;6.50;;
37847;SDS011;23688;33.130;-117.188;2023-08-21T10:20:06;18.50;;;5.80;;
37847;SDS011;23688;33.130;-117.188;2023-08-21T10:22:48;24.35;;;7.05;;
37847;SDS011;23688;33.130;-117.188;2023-08-21T10:25:20;19.00;;;6.85;;
37847;SDS011;23688;33.130;-117.188;2023-08-21T10:27:57;12.98;;;5.90;;
37847;SDS011;23688;33.130;-117.188;2023-08-21T10:30:27;35.20;;;7.40;;
37847;SDS011;23688;33.130;-117.188;2023-08-21T10:32:55;24.85;;;6.47;;
37847;SDS011;23688;33.130;-117.188;2023-08-21T10:35:27;23.65;;;6.80;;
37847;SDS011;23688;33.130;-117.188;2023-08-21T10:38:09;17.00;;;5.22;;
37847;SDS011;23688;33.130;-117.188;2023-08-21T10:40:41;24.83;;;6.55;;
37847;SDS011;23688;33.130;-117.188;2023-08-21T10:43:38;17.63;;;5.80;;
37847;SDS011;23688;33.130;-117.188;2023-08-21T10:46:06;16.10;;;5.95;;
37847;SDS011;23688;33.130;-117.188;2023-08-21T10:48:34;17.48;;;6.00;;
37847;SDS011;23688;33.130;-117.188;2023-08-21T10:51:04;17.17;;;6.03;;
37847;SDS011;23688;33.130;-117.188;2023-08-21T10:53:33;18.25;;;6.15;;
37847;SDS011;23688;33.130;-117.188;2023-08-21T10:56:03;18.92;;;5.60;;
37847;SDS011;23688;33.130;-117.188;2023-08-21T10:58:42;12.68;;;5.82;;
37847;SDS011;23688;33.130;-117.188;2023-08-21T11:01:12;20.20;;;5.70;;
37847;SDS011;23688;33.130;-117.188;2023-08-21T11:03:39;15.57;;;5.30;;
37847;SDS011;23688;33.130;-117.188;2023-08-21T11:06:06;20.20;;;5.93;;
37847;SDS011;23688;33.130;-117.188;2023-08-21T11:08:34;18.33;;;5.57;;
37847;SDS011;23688;33.130;-117.188;2023-08-21T11:13:29;18.27;;;5.07;;
37847;SDS011;23688;33.130;-117.188;2023-08-21T11:16:00;20.67;;;5.57;;
37847;SDS011;23688;33.130;-117.188;2023-08-21T11:18:34;18.52;;;4.97;;
37847;SDS011;23688;33.130;-117.188;2023-08-21T11:21:04;16.30;;;4.22;;
37847;SDS011;23688;33.130;-117.188;2023-08-21T11:23:32;15.43;;;4.93;;
37847;SDS011;23688;33.130;-117.188;2023-08-21T11:26:00;13.32;;;5.20;;
37847;SDS011;23688;33.130;-117.188;2023-08-21T11:28:29;12.40;;;4.55;;
37847;SDS011;23688;33.130;-117.188;2023-08-21T11:30:56;14.67;;;5.13;;
37847;SDS011;23688;33.130;-117.188;2023-08-21T11:33:24;16.30;;;5.05;;
37847;SDS011;23688;33.130;-117.188;2023-08-21T11:35:52;12.15;;;4.95;;
37847;SDS011;23688;33.130;-117.188;2023-08-21T11:38:23;12.10;;;5.22;;
37847;SDS011;23688;33.130;-117.188;2023-08-21T11:40:55;13.95;;;5.47;;
37847;SDS011;23688;33.130;-117.188;2023-08-21T11:43:33;10.65;;;4.93;;
37847;SDS011;23688;33.130;-117.188;2023-08-21T11:46:03;11.07;;;5.07;;
37847;SDS011;23688;33.130;-117.188;2023-08-21T11:48:32;13.65;;;5.35;;
37847;SDS011;23688;33.130;-117.188;2023-08-21T11:51:00;10.35;;;5.15;;
37847;SDS011;23688;33.130;-117.188;2023-08-21T11:53:45;19.63;;;5.60;;
37847;SDS011;23688;33.130;-117.188;2023-08-21T11:56:15;14.77;;;6.13;;
37847;SDS011;23688;33.130;-117.188;2023-08-21T11:58:43;19.88;;;5.38;;
37847;SDS011;23688;33.130;-117.188;2023-08-21T12:01:10;15.85;;;6.03;;
37847;SDS011;23688;33.130;-117.188;2023-08-21T12:03:43;8.75;;;4.93;;
37847;SDS011;23688;33.130;-117.188;2023-08-21T12:06:10;8.67;;;5.13;;
37847;SDS011;23688;33.130;-117.188;2023-08-21T12:08:38;13.20;;;5.40;;
37847;SDS011;23688;33.130;-117.188;2023-08-21T12:11:05;10.68;;;4.80;;
37847;SDS011;23688;33.130;-117.188;2023-08-21T12:13:33;14.98;;;5.47;;
37847;SDS011;23688;33.130;-117.188;2023-08-21T12:15:59;11.57;;;4.80;;
37847;SDS011;23688;33.130;-117.188;2023-08-21T12:18:25;14.68;;;5.63;;
37847;SDS011;23688;33.130;-117.188;2023-08-21T12:20:52;10.48;;;5.65;;
37847;SDS011;23688;33.130;-117.188;2023-08-21T12:23:18;16.50;;;5.40;;
37847;SDS011;23688;33.130;-117.188;2023-08-21T12:25:44;8.93;;;5.15;;
37847;SDS011;23688;33.130;-117.188;2023-08-21T12:28:10;8.85;;;5.15;;
37847;SDS011;23688;33.130;-117.188;2023-08-21T12:30:37;11.70;;;5.13;;
37847;SDS011;23688;33.130;-117.188;2023-08-21T12:33:03;16.83;;;5.57;;
37847;SDS011;23688;33.130;-117.188;2023-08-21T12:35:29;11.82;;;4.82;;
37847;SDS011;23688;33.130;-117.188;2023-08-21T12:37:56;18.92;;;5.97;;
37847;SDS011;23688;33.130;-117.188;2023-08-21T12:40:31;11.52;;;5.40;;
37847;SDS011;23688;33.130;-117.188;2023-08-21T12:42:57;9.77;;;4.65;;
37847;SDS011;23688;33.130;-117.188;2023-08-21T12:45:24;11.50;;;5.15;;
37847;SDS011;23688;33.130;-117.188;2023-08-21T12:47:50;10.73;;;4.70;;
37847;SDS011;23688;33.130;-117.188;2023-08-21T12:50:16;8.45;;;5.07;;
37847;SDS011;23688;33.130;-117.188;2023-08-21T12:52:42;12.27;;;6.03;;
37847;SDS011;23688;33.130;-117.188;2023-08-21T12:55:08;13.95;;;5.95;;
37847;SDS011;23688;33.130;-117.188;2023-08-21T12:57:35;11.57;;;4.50;;
37847;SDS011;23688;33.130;-117.188;2023-08-21T13:00:01;12.88;;;4.95;;
37847;SDS011;23688;33.130;-117.188;2023-08-21T13:02:28;12.55;;;5.40;;
37847;SDS011;23688;33.130;-117.188;2023-08-21T13:04:54;9.73;;;4.45;;
37847;SDS011;23688;33.130;-117.188;2023-08-21T13:07:21;11.13;;;4.78;;
37847;SDS011;23688;33.130;-117.188;2023-08-21T13:09:47;9.40;;;4.50;;
37847;SDS011;23688;33.130;-117.188;2023-08-21T13:12:13;14.73;;;4.82;;
37847;SDS011;23688;33.130;-117.188;2023-08-21T13:14:39;8.38;;;4.50;;
37847;SDS011;23688;33.130;-117.188;2023-08-21T13:17:07;9.65;;;3.95;;
37847;SDS011;23688;33.130;-117.188;2023-08-21T13:19:33;7.05;;;4.50;;
37847;SDS011;23688;33.130;-117.188;2023-08-21T13:21:59;9.32;;;3.75;;
37847;SDS011;23688;33.130;-117.188;2023-08-21T13:24:25;8.48;;;4.60;;
37847;SDS011;23688;33.130;-117.188;2023-08-21T13:26:53;12.43;;;4.63;;
37847;SDS011;23688;33.130;-117.188;2023-08-21T13:29:19;7.38;;;4.63;;
37847;SDS011;23688;33.130;-117.188;2023-08-21T13:31:46;13.30;;;4.53;;
37847;SDS011;23688;33.130;-117.188;2023-08-21T13:34:12;8.20;;;4.38;;
37847;SDS011;23688;33.130;-117.188;2023-08-21T13:36:38;5.80;;;4.53;;
37847;SDS011;23688;33.130;-117.188;2023-08-21T13:39:04;13.63;;;4.68;;
37847;SDS011;23688;33.130;-117.188;2023-08-21T13:41:31;8.80;;;4.70;;
37847;SDS011;23688;33.130;-117.188;2023-08-21T13:43:58;7.78;;;4.65;;
37847;SDS011;23688;33.130;-117.188;2023-08-21T13:46:24;8.13;;;5.07;;
37847;SDS011;23688;33.130;-117.188;2023-08-21T13:48:50;10.65;;;5.15;;
37847;SDS011;23688;33.130;-117.188;2023-08-21T13:51:16;10.55;;;5.10;;
37847;SDS011;23688;33.130;-117.188;2023-08-21T13:53:43;7.32;;;4.82;;
37847;SDS011;23688;33.130;-117.188;2023-08-21T13:56:09;6.28;;;5.28;;
37847;SDS011;23688;33.130;-117.188;2023-08-21T13:58:35;9.88;;;5.50;;
37847;SDS011;23688;33.130;-117.188;2023-08-21T14:01:02;8.65;;;5.57;;
37847;SDS011;23688;33.130;-117.188;2023-08-21T14:03:28;12.32;;;6.32;;
37847;SDS011;23688;33.130;-117.188;2023-08-21T14:05:55;10.93;;;6.28;;
37847;SDS011;23688;33.130;-117.188;2023-08-21T14:08:21;14.20;;;6.25;;
37847;SDS011;23688;33.130;-117.188;2023-08-21T14:10:47;13.52;;;6.60;;
37847;SDS011;23688;33.130;-117.188;2023-08-21T14:13:13;14.02;;;6.07;;